Swift Current Airport, Saskatchewan

Past 24 Hour Conditions

Date / Time
(CST)
Conditions Temp
(°F)
Humidity
(%)
Dew Point
(°F)
Wind
(mph)
Pressure
(inches)
Vis
(mi)
Wind Chill
21 November 2014
4:00 Clear 31 81 26 SW 18 29.6 10 19
3:00 Clear 31 80 26 SW 18 29.6 10 19
2:00 Cloudy 34   76 27 SW 17 29.6 10 *
1:00 Mostly Cloudy 33 79 27 SW 17 29.6 10 *
00:00 Mostly Cloudy 33 77 26 SW 15 29.7 10 *
20 November 2014
23:00 Cloudy 33 78 27 SW 20 29.7 10 *
22:00 Mostly Cloudy 32 75 25 WSW 11 gust 23 29.7 10 *
21:00 Cloudy 28 80 22 SW 15 29.7 10 16
20:00 Cloudy 26 83 21 SW 15 29.8 10 13
19:00 Clear 23 86 19 SSW 13 29.8 10 10
18:00 Clear 24 85 20 SSW 11 29.8 10 14
17:00 Sunny 26 83 22 SSW 10 29.8 10 16
16:00 Sunny 28 82 23 SSW 11 gust 17 29.8 10 18
15:00 Sunny 28 80 23 SSW 14 gust 20 29.8 10 17
14:00 Sunny 27 80 22 SSW 13 29.9 10 16
13:00 Mainly Sunny 26 83 21 SSW 11 29.9 10 15
12:00 Mainly Sunny 24 85 20 SW 14 29.9 10 12
11:00 Partly Cloudy 23 88 19 SSW 16 29.9 10 9
10:00 Cloudy 20 94 19 SSW 14 29.9 10 7
9:00 Mostly Cloudy 18   94 17 SSW 13 29.9 10 5
8:00 Cloudy 18   93 16 S 9 30.0 10 6
7:00 Cloudy 19 94 17 SSW 11 gust 17 30.0 10 6
6:00 Cloudy 19 95 18 S 10 30.0 9 8
5:00 Cloudy 19 95 18 S 13 30.0 7 6
4:00 Cloudy 19 95 18 SSW 13 30.0 7 6
N/A Not available
↑ Highest temperature
↓ Lowest temperature
* Value not significant.

If you require additional historical weather information, please visit Climate Data Online.

Date modified: